KDTW/DTW METAR and TAF weather

Enter ICAO airport designator
Station Type Date Time Source
KDTW METAR 2022/11/27 07:53 UTC NOAA

KDTW 270753Z 00000KT 10SM BKN200 04/M02 A2975 RMK AO2 SLP077 T00391022


Station Type Date Time Source
KDTW Decoded METAR 2022/11/27 07:53 UTC NOAA

DETROIT METROPOLITAN, MI, United States (KDTW) 42-14N 83-20W 195M
Nov 27, 2022 - 02:53 AM EST / 2022.11.27 0753 UTC
Wind: Calm:0
Visibility: 10 mile(s):0
Sky conditions: mostly cloudy
Temperature: 39.0 F (3.9 C)
Dew Point: 28.0 F (-2.2 C)
Relative Humidity: 64%
Pressure (altimeter): 29.75 in. Hg (1007 hPa)
ob: KDTW 270753Z 00000KT 10SM BKN200 04/M02 A2975 RMK AO2 SLP077 T00391022
cycle: 8

Station Type Date Time Source
KDTW TAF 2022/11/27 06:36 UTC NOAA

TAF KDTW 270535Z 2706/2812 19007KT P6SM OVC200
FM270900 14004KT P6SM BKN070 OVC150
FM271100 10009KT 5SM -SHRA OVC045
FM271400 06010G14KT 1SM RA BR OVC005
FM271700 03013G20KT 3SM RA BR OVC007
FM280000 35012G18KT P6SM SCT008 OVC015
FM280400 31009KT P6SM SCT015 BKN025

Example: see airport list